Alpine Airstrip, AK

10:27 PM AKST on November 23, 2017 (GMT -0900)
Deadhorse Alpine Airstrip | | Change Station

Elev 16 ft 70.34 °N, 150.94 °W | Updated 5 hours ago

Overcast
Overcast
16 °F
Feels Like 3 °F
N
12
Wind Variable Wind from SSW

Today
High -- | Low -- °F
--% Chance of Precip.
Yesterday
High -- | Low -- °F
Precip. -- in
Pressure 29.45 in
Visibility 10.0 miles
Clouds Overcast 4600 ft
Windchill 3 °F
Dew Point 10 °F
Humidity 79%
Rainfall 0.00 in
Snow Depth Not available.
12:17 PM 1:22 PM
Waxing Crescent, 28% visible
METAR PALP 240153Z 20010KT 10SM OVC046 M09/M12 A2945
Pressure 29.45 in
Visibility 10.0 miles
Clouds Overcast 4600 ft
Windchill 3 °F
Dew Point 10 °F
Humidity 79%
Rainfall 0.00 in
Snow Depth Not available.
12:17 PM 1:22 PM
Waxing Crescent, 28% visible
METAR PALP 240153Z 20010KT 10SM OVC046 M09/M12 A2945

Get Severe Weather Alerts

Thanks for signing up!

Be on the lookout for a verification email in your inbox.

You'll start receiving the daily forecast at 6 AM.

×

10-Day Weather Forecast

Almanac

Astronomy

Nov. 23, 2017 Rise Set
Actual Time
Civil Twilight
Nautical Twilight
Astronomical Twilight
Moon
Length of Visible Light
Length of Day
Tomorrow will be .
, % of the Moon is Illuminated

Today's Extremes

State Highs State Lows

Community

WunderPhotos

Category 6

Welcome to Category 6. This is the collective home for Weather Underground's featured writeups by Dr. Jeff Masters (right), Bob Henson (left), Chris Burt, and other regular contributors.

Nearby

Air Quality

  Air Quality AQ Index Pollutant
Not available.

Snow Depth

Station Depth Elevation

Earthquake Activity

City Distance Mag. Time & Date
Minimum magnitude displayed is 2.5.

Coastal Water Temperatures

Place Temperature

Stations

Nearby Weather Stations

Station Location Temp. Windchill Dew Point Humidity Wind Precip. Elev Updated Type
                   

Watches & Warnings

There are currently no watches in effect.